Time;durP1;ratioP1;P1;durP2;ratioP2;P2;SDS_P1;SDS_P2;PMS_P1;PMS_P2;Temp;Humidity;BMP_temperature;BMP_pressure;BME280_temperature;BME280_humidity;BME280_pressure;Samples;Min_cycle;Max_cycle;Signal;HPM_P1;HPM_P2
2024/04/15 00:01:39;;;;;;;7.30;5.10;;;;;;;13.09;100.00;98937.82;273337;1266;22352;-84
2024/04/15 00:07:41;;;;;;;7.90;5.20;;;;;;;13.02;100.00;98932.55;273724;1266;22552;-83
2024/04/15 00:13:42;;;;;;;9.30;5.00;;;;;;;12.96;100.00;98925.86;273526;1267;23768;-83
2024/04/15 00:20:04;;;;;;;7.40;4.70;;;;;;;12.85;100.00;98916.42;273715;1267;22211;-82
2024/04/15 00:26:06;;;;;;;8.70;4.90;;;;;;;12.73;100.00;98904.48;272714;1266;23528;-84
2024/04/15 00:32:12;;;;;;;8.00;5.00;;;;;;;12.61;100.00;98892.08;271922;1266;22544;-82
2024/04/15 00:38:53;;;;;;;10.90;4.90;;;;;;;12.49;100.00;98886.48;273859;1270;23114;-82
2024/04/15 00:45:35;;;;;;;7.90;5.50;;;;;;;12.30;100.00;98876.17;273525;1266;23675;-82
2024/04/15 00:52:00;;;;;;;9.00;5.00;;;;;;;12.20;100.00;98864.23;274170;1266;23631;-82
2024/04/15 00:58:01;;;;;;;11.10;4.70;;;;;;;12.09;100.00;98855.20;273646;1266;22323;-82
2024/04/15 01:04:03;;;;;;;8.10;4.40;;;;;;;12.01;100.00;98853.83;274057;1270;22271;-82
2024/04/15 01:10:05;;;;;;;9.00;4.10;;;;;;;11.94;100.00;98846.67;273928;1251;22286;-81
2024/04/15 01:16:55;;;;;;;7.60;3.40;;;;;;;11.84;100.00;98834.26;273868;1266;22452;-82
2024/04/15 01:24:01;;;;;;;12.90;4.00;;;;;;;11.83;100.00;98822.18;273464;1267;22488;-82
2024/04/15 01:30:08;;;;;;;9.60;3.10;;;;;;;11.86;100.00;98805.27;274225;1267;22293;-81
2024/04/15 01:36:50;;;;;;;6.60;2.70;;;;;;;11.88;100.00;98795.32;273353;1266;23087;-82
2024/04/15 01:42:54;;;;;;;8.50;4.00;;;;;;;11.87;100.00;98785.68;273653;1267;22486;-82
2024/04/15 01:49:43;;;;;;;5.10;3.10;;;;;;;11.82;100.00;98768.83;273854;1274;22320;-82
2024/04/15 01:55:46;;;;;;;9.70;3.00;;;;;;;11.70;100.00;98748.73;273621;1266;22387;-82
2024/04/15 02:01:52;;;;;;;8.30;3.40;;;;;;;11.66;100.00;98735.64;273190;1260;111471;-87
2024/04/15 02:08:20;;;;;;;;;;;;;;;11.67;100.00;98721.06;272879;1272;22482;-82
2024/04/15 02:15:40;;;;;;;5.70;2.90;;;;;;;11.68;100.00;98708.38;272269;1277;22578;-82
2024/04/15 02:22:49;;;;;;;7.40;3.40;;;;;;;11.66;100.00;98699.52;266278;1281;1363335;-82
2024/04/15 02:29:16;;;;;;;4.20;2.70;;;;;;;11.68;100.00;98684.73;269542;1270;22554;-81
2024/04/15 02:35:58;;;;;;;4.00;2.20;;;;;;;11.69;100.00;98675.64;271412;1270;22667;-82
2024/04/15 02:42:00;;;;;;;10.00;2.30;;;;;;;11.63;100.00;98661.90;272101;1270;22451;-82
2024/04/15 02:48:02;;;;;;;9.90;3.60;;;;;;;11.47;100.00;98650.42;271031;1270;22616;-82
2024/04/15 02:54:32;;;;;;;6.80;3.50;;;;;;;11.32;100.00;98631.68;273042;1270;22412;-82
2024/04/15 03:00:38;;;;;;;8.70;3.60;;;;;;;11.20;100.00;98612.16;270293;1270;23249;-83
2024/04/15 03:07:05;;;;;;;7.40;3.50;;;;;;;11.11;100.00;98600.64;270848;1270;23776;-84
2024/04/15 03:13:06;;;;;;;;;;;;;;;10.99;100.00;98588.23;272620;1270;23738;-83
2024/04/15 03:19:08;;;;;;;17.20;4.00;;;;;;;10.93;100.00;98579.61;270482;1270;22616;-83
2024/04/15 03:25:09;;;;;;;7.10;3.60;;;;;;;10.81;100.00;98567.38;272072;1270;22535;-84
2024/04/15 03:31:11;;;;;;;7.20;3.90;;;;;;;10.75;100.00;98552.33;269814;1270;22536;-84
2024/04/15 03:37:12;;;;;;;6.90;3.30;;;;;;;10.66;100.00;98539.47;269582;1270;22697;-84
2024/04/15 03:43:13;;;;;;;7.20;3.50;;;;;;;10.59;100.00;98521.15;269695;1270;23712;-83
2024/04/15 03:49:15;;;;;;;7.60;3.50;;;;;;;10.57;100.00;98509.48;269995;1269;22289;-84
2024/04/15 03:55:16;;;;;;;6.80;3.40;;;;;;;10.61;100.00;98507.38;269843;1271;22411;-83
2024/04/15 04:01:43;;;;;;;6.90;3.90;;;;;;;10.60;100.00;98491.81;271210;1270;22476;-83
2024/04/15 04:07:44;;;;;;;6.40;3.30;;;;;;;10.58;100.00;98476.89;273204;1272;22530;-83
2024/04/15 04:14:09;;;;;;;9.10;3.50;;;;;;;10.62;100.00;98483.45;269991;1270;22421;-83
2024/04/15 04:20:39;;;;;;;6.90;3.60;;;;;;;10.70;100.00;98468.38;269954;1270;22562;-84
2024/04/15 04:27:33;;;;;;;8.00;3.10;;;;;;;10.74;100.00;98447.42;272949;1271;22341;-84
2024/04/15 04:34:22;;;;;;;6.10;3.20;;;;;;;10.82;100.00;98427.42;273380;1272;22242;-83
2024/04/15 04:48:18;;;;;;;6.70;3.20;;;;;;;10.91;100.00;98461.23;271240;1270;23212;-84
2024/04/15 04:55:14;;;;;;;8.80;3.70;;;;;;;10.85;100.00;98477.25;273217;1277;23120;-83
2024/04/15 05:02:25;;;;;;;7.70;3.70;;;;;;;10.85;100.00;98452.38;272610;1270;22285;-83
2024/04/15 05:08:27;;;;;;;8.30;3.60;;;;;;;10.83;100.00;98473.10;273379;1272;22326;-82
2024/04/15 05:14:28;;;;;;;7.10;4.10;;;;;;;10.79;100.00;98501.58;272967;1270;22540;-83
2024/04/15 05:20:29;;;;;;;12.30;5.10;;;;;;;10.70;100.00;98504.05;273298;1272;23230;-84
2024/04/15 05:26:50;;;;;;;10.40;4.80;;;;;;;10.69;100.00;98514.76;272632;1271;23262;-82
2024/04/15 05:33:00;;;;;;;9.60;4.20;;;;;;;10.62;100.00;98509.58;272762;1270;22567;-82
2024/04/15 05:39:15;;;;;;;9.70;4.30;;;;;;;10.53;100.00;98477.48;270778;1267;25358;-83
2024/04/15 05:45:16;;;;;;;10.50;3.90;;;;;;;10.53;100.00;98491.33;270467;1270;22628;-82
2024/04/15 05:51:17;;;;;;;12.20;7.40;;;;;;;10.56;100.00;98494.70;271435;1271;23270;-82
2024/04/15 05:57:18;;;;;;;11.60;5.90;;;;;;;10.62;100.00;98456.31;271765;1270;22577;-82
2024/04/15 06:03:19;;;;;;;8.20;5.20;;;;;;;10.68;100.00;98444.91;270255;1270;22359;-82
2024/04/15 06:09:24;;;;;;;9.10;5.70;;;;;;;10.76;100.00;98456.98;273621;1270;23784;-81
2024/04/15 06:15:25;;;;;;;9.50;5.50;;;;;;;10.88;100.00;98460.36;272976;1270;22423;-81
2024/04/15 06:21:26;;;;;;;11.30;6.00;;;;;;;10.97;100.00;98450.91;273094;1270;22439;-82
2024/04/15 06:27:54;;;;;;;10.00;5.30;;;;;;;11.04;100.00;98450.42;273169;1271;22386;-82
2024/04/15 06:34:20;;;;;;;9.70;6.10;;;;;;;11.21;100.00;98445.27;273135;1272;22421;-81
2024/04/15 06:40:29;;;;;;;12.80;6.00;;;;;;;11.41;100.00;98434.30;273332;1272;22315;-81
2024/04/15 06:46:57;;;;;;;11.60;5.50;;;;;;;11.57;100.00;98431.79;271321;1271;22677;-82
2024/04/15 06:53:03;;;;;;;12.20;6.50;;;;;;;11.73;100.00;98432.30;272501;1270;22327;-81
2024/04/15 06:59:04;;;;;;;11.70;6.70;;;;;;;11.82;100.00;98446.00;272302;1270;22264;-82
2024/04/15 07:06:00;;;;;;;11.80;6.60;;;;;;;11.83;100.00;98465.04;273372;1272;23196;-82
2024/04/15 07:12:31;;;;;;;15.50;7.20;;;;;;;11.75;100.00;98481.04;272326;1272;22568;-82
2024/04/15 07:18:32;;;;;;;13.00;4.90;;;;;;;11.59;100.00;98485.50;269111;1270;22575;-83
2024/04/15 07:24:34;;;;;;;9.40;5.20;;;;;;;11.45;100.00;98462.80;269467;1270;23323;-82
2024/04/15 07:30:39;;;;;;;7.10;5.00;;;;;;;11.43;100.00;98440.17;272762;1259;22498;-82
2024/04/15 07:37:05;;;;;;;10.20;5.40;;;;;;;11.51;100.00;98440.79;272296;1270;22567;-82
2024/04/15 07:43:48;;;;;;;9.00;6.10;;;;;;;11.53;100.00;98437.89;272523;1270;23576;-82
2024/04/15 07:50:12;;;;;;;10.70;5.80;;;;;;;11.43;100.00;98433.36;270921;1270;22564;-84
2024/04/15 07:56:45;;;;;;;15.90;6.20;;;;;;;11.35;100.00;98443.16;272373;1271;22364;-83
2024/04/15 08:02:46;;;;;;;9.50;5.70;;;;;;;11.31;100.00;98437.13;272755;1270;22442;-82
2024/04/15 08:09:23;;;;;;;11.60;5.50;;;;;;;11.27;100.00;98445.19;272892;1271;22373;-82
2024/04/15 08:15:26;;;;;;;15.30;6.10;;;;;;;11.29;100.00;98434.70;273349;1272;22529;-85
2024/04/15 08:21:47;;;;;;;9.30;5.20;;;;;;;11.26;100.00;98427.27;272838;1271;22342;-83
2024/04/15 08:27:59;;;;;;;8.10;5.10;;;;;;;11.22;100.00;98440.34;272963;1269;22394;-83
2024/04/15 08:34:04;;;;;;;9.40;5.80;;;;;;;11.19;100.00;98446.23;273180;1272;22249;-82
2024/04/15 08:40:07;;;;;;;9.70;5.30;;;;;;;11.19;100.00;98425.02;273535;1268;22231;-82
2024/04/15 08:46:17;;;;;;;13.80;5.40;;;;;;;11.30;100.00;98412.07;272530;1271;22548;-82
2024/04/15 08:53:02;;;;;;;10.50;6.00;;;;;;;11.64;100.00;98413.69;272903;1269;22415;-82
2024/04/15 08:59:07;;;;;;;10.40;5.50;;;;;;;11.68;100.00;98426.77;272417;1264;22696;-82
2024/04/15 09:05:09;;;;;;;11.40;4.80;;;;;;;11.47;100.00;98409.70;272924;1270;25396;-83
2024/04/15 09:11:13;;;;;;;10.20;4.80;;;;;;;11.32;100.00;98406.52;271770;1271;22351;-83
2024/04/15 09:17:15;;;;;;;6.50;4.40;;;;;;;11.32;100.00;98410.67;272319;1272;22525;-82
2024/04/15 09:23:40;;;;;;;7.10;4.60;;;;;;;11.40;100.00;98406.73;272752;1271;23076;-81
2024/04/15 09:30:05;;;;;;;9.60;5.10;;;;;;;11.48;100.00;98427.88;272765;1270;23198;-82
2024/04/15 09:36:08;;;;;;;8.10;4.80;;;;;;;11.40;100.00;98451.14;271715;1271;23936;-82
2024/04/15 09:42:42;;;;;;;9.60;5.40;;;;;;;11.32;100.00;98459.44;271574;1272;22258;-83
2024/04/15 09:48:49;;;;;;;10.20;5.00;;;;;;;11.10;100.00;98453.48;270648;1272;22482;-86
2024/04/15 09:55:19;;;;;;;10.30;5.00;;;;;;;10.78;100.00;98442.98;271355;1272;23615;-83
2024/04/15 10:01:46;;;;;;;;;;;;;;;;;;;;;
2024/04/15 10:08:01;;;;;;;11.00;4.60;;;;;;;10.42;100.00;98455.80;270880;1268;22539;-83
2024/04/15 10:14:03;;;;;;;11.00;4.90;;;;;;;10.32;100.00;98440.68;270563;1269;22439;-81
2024/04/15 10:20:12;;;;;;;11.30;4.80;;;;;;;10.22;100.00;98437.91;270991;1272;22658;-80
2024/04/15 10:26:14;;;;;;;11.70;4.90;;;;;;;10.14;100.00;98414.36;270033;1267;22707;-81
2024/04/15 10:32:16;;;;;;;13.30;5.40;;;;;;;10.18;100.00;98403.42;269637;1271;23409;-82
2024/04/15 10:39:10;;;;;;;10.90;6.00;;;;;;;10.34;100.00;98390.58;272576;1267;23803;-82
2024/04/15 10:45:17;;;;;;;13.10;5.80;;;;;;;10.54;100.00;98389.21;272486;1272;23494;-81
2024/04/15 10:51:49;;;;;;;10.00;6.10;;;;;;;10.66;100.00;98421.29;270310;1270;22551;-82
2024/04/15 10:57:50;;;;;;;9.80;6.10;;;;;;;10.63;100.00;98409.40;273015;1272;22265;-82
2024/04/15 11:03:53;;;;;;;12.60;5.60;;;;;;;10.63;100.00;98412.60;273020;1270;22420;-82
2024/04/15 11:10:15;;;;;;;11.40;5.50;;;;;;;10.62;100.00;98420.42;272857;1270;22283;-82
2024/04/15 11:16:17;;;;;;;12.10;6.00;;;;;;;10.57;100.00;98421.98;272590;1264;22562;-83
2024/04/15 11:22:26;;;;;;;11.70;6.40;;;;;;;10.45;100.00;98404.45;272367;1270;22666;-83
2024/04/15 11:28:28;;;;;;;8.00;5.00;;;;;;;10.41;100.00;98387.63;271446;1270;22591;-83
2024/04/15 11:34:30;;;;;;;10.40;6.50;;;;;;;10.47;100.00;98393.96;269641;1270;22628;-84
2024/04/15 11:40:31;;;;;;;10.80;5.70;;;;;;;10.48;100.00;98379.81;269932;1270;24578;-83
2024/04/15 11:46:55;;;;;;;11.80;5.80;;;;;;;10.51;100.00;98368.64;270445;1271;22376;-82
2024/04/15 11:53:00;;;;;;;12.60;7.10;;;;;;;10.60;100.00;98350.59;272722;1271;22439;-83
2024/04/15 11:59:19;;;;;;;14.00;7.70;;;;;;;10.70;100.00;98347.70;270058;1264;22567;-82
2024/04/15 12:05:22;;;;;;;13.70;8.20;;;;;;;10.83;100.00;98340.27;270257;1270;24261;-82
2024/04/15 12:12:05;;;;;;;15.70;8.50;;;;;;;10.89;100.00;98327.20;270029;1270;22527;-82
2024/04/15 12:18:26;;;;;;;14.50;9.50;;;;;;;10.87;100.00;98306.32;271817;1270;22443;-82
2024/04/15 12:24:29;;;;;;;17.30;11.20;;;;;;;10.88;100.00;98292.08;272040;1271;22552;-81
2024/04/15 12:30:53;;;;;;;18.00;12.20;;;;;;;10.95;100.00;98284.72;271559;1266;22334;-81
2024/04/15 12:37:16;;;;;;;17.70;11.80;;;;;;;11.06;100.00;98270.36;273545;1274;22908;-81
2024/04/15 12:44:00;;;;;;;17.70;13.50;;;;;;;11.14;100.00;98259.08;273347;1272;22279;-81
2024/04/15 12:50:03;;;;;;;14.80;12.40;;;;;;;11.23;100.00;98247.63;272279;1270;23053;-81
2024/04/15 12:56:37;;;;;;;16.30;12.00;;;;;;;11.36;100.00;98240.61;273176;1270;22521;-81
2024/04/15 13:02:39;;;;;;;17.70;13.40;;;;;;;11.47;100.00;98240.96;272964;1270;22408;-81
2024/04/15 13:09:00;;;;;;;18.30;11.80;;;;;;;11.51;100.00;98225.04;273563;1271;23381;-81
2024/04/15 13:15:22;;;;;;;15.80;12.10;;;;;;;11.59;100.00;98205.90;273296;1272;22266;-81
2024/04/15 13:21:29;;;;;;;17.70;12.90;;;;;;;11.64;100.00;98199.38;273319;1270;22264;-81
2024/04/15 13:28:12;;;;;;;17.90;13.40;;;;;;;11.66;100.00;98183.00;273249;1265;22245;-81
2024/04/15 13:34:35;;;;;;;19.70;12.90;;;;;;;11.77;100.00;98162.80;272981;1270;22351;-81
2024/04/15 13:40:36;;;;;;;22.00;12.30;;;;;;;11.82;100.00;98158.94;271898;1262;23831;-82
2024/04/15 13:46:51;;;;;;;17.30;13.50;;;;;;;11.83;100.00;98154.30;272517;1270;22274;-82
2024/04/15 13:52:52;;;;;;;21.20;13.10;;;;;;;11.83;100.00;98169.20;273114;1270;22275;-81
2024/04/15 13:59:15;;;;;;;19.90;12.80;;;;;;;11.85;100.00;98179.36;273085;1270;22295;-82
2024/04/15 14:05:16;;;;;;;16.60;11.00;;;;;;;11.94;100.00;98181.34;272361;1270;23729;-82
2024/04/15 14:12:00;;;;;;;16.70;11.90;;;;;;;12.01;100.00;98166.47;273306;1270;22418;-82
2024/04/15 14:18:37;;;;;;;19.30;12.40;;;;;;;12.01;100.00;98156.27;273368;1263;22371;-82
2024/04/15 14:24:40;;;;;;;22.60;14.50;;;;;;;11.98;100.00;98143.45;270983;1270;2730266;-83
2024/04/15 14:31:02;;;;;;;19.50;14.10;;;;;;;11.96;100.00;98139.86;273366;1272;22307;-81
2024/04/15 14:37:03;;;;;;;24.30;14.80;;;;;;;11.94;100.00;98146.61;272260;1270;24044;-82
2024/04/15 14:43:05;;;;;;;28.40;16.10;;;;;;;11.87;100.00;98153.95;272387;1271;22573;-82
2024/04/15 14:49:07;;;;;;;22.20;15.10;;;;;;;11.75;100.00;98138.38;272736;1270;22459;-81
2024/04/15 14:55:25;;;;;;;25.60;16.50;;;;;;;11.69;100.00;98110.92;273121;1270;22290;-81
2024/04/15 15:01:28;;;;;;;22.40;16.10;;;;;;;11.66;100.00;98103.42;271677;1270;23690;-82
2024/04/15 15:07:30;;;;;;;24.50;16.50;;;;;;;11.58;100.00;98079.27;272763;1270;23103;-83
2024/04/15 15:13:32;;;;;;;27.00;18.60;;;;;;;11.48;100.00;98058.59;269862;1270;22569;-82
2024/04/15 15:19:33;;;;;;;29.40;19.30;;;;;;;11.39;100.00;98015.35;270429;1270;22600;-81
2024/04/15 15:25:34;;;;;;;29.00;19.50;;;;;;;11.36;100.00;98011.77;270766;1270;23200;-82
2024/04/15 15:31:35;;;;;;;29.20;18.90;;;;;;;11.36;100.00;98016.31;273366;1272;23218;-82
2024/04/15 15:38:16;;;;;;;25.30;19.30;;;;;;;11.38;100.00;98033.28;271818;1270;22354;-81
2024/04/15 15:45:00;;;;;;;34.00;21.00;;;;;;;11.41;100.00;98029.81;270883;1270;22668;-81
2024/04/15 15:51:02;;;;;;;33.50;20.00;;;;;;;11.39;100.00;98029.83;269484;1270;25578;-81
2024/04/15 15:57:03;;;;;;;30.90;20.40;;;;;;;11.35;100.00;98030.57;270862;1270;22282;-81
2024/04/15 16:03:04;;;;;;;34.10;21.60;;;;;;;11.32;100.00;98023.63;273429;1271;23013;-82
2024/04/15 16:09:07;;;;;;;39.50;23.30;;;;;;;11.29;100.00;98000.09;273190;1263;23209;-82
2024/04/15 16:15:08;;;;;;;40.90;25.70;;;;;;;11.23;100.00;97984.32;270527;1267;22240;-81
2024/04/15 16:21:31;;;;;;;43.10;25.40;;;;;;;11.20;100.00;97989.75;270003;1270;23736;-81
2024/04/15 16:27:35;;;;;;;45.10;26.10;;;;;;;11.18;100.00;97976.30;271172;1266;22292;-81
2024/04/15 16:33:36;;;;;;;35.40;23.30;;;;;;;11.14;100.00;97959.50;272809;1270;22554;-82
2024/04/15 16:39:37;;;;;;;38.10;23.80;;;;;;;11.11;100.00;97945.74;272724;1270;22624;-82
2024/04/15 16:45:39;;;;;;;45.90;25.40;;;;;;;11.17;100.00;97924.80;272822;1270;22436;-82
2024/04/15 16:51:41;;;;;;;35.90;22.30;;;;;;;11.17;100.00;97926.70;272878;1270;22221;-82
2024/04/15 16:57:42;;;;;;;29.30;20.90;;;;;;;11.18;100.00;97922.14;272147;1270;22806;-82
2024/04/15 17:04:07;;;;;;;37.90;22.70;;;;;;;11.23;100.00;97917.48;265430;1270;10001336;-82
2024/04/15 17:10:29;;;;;;;35.60;23.20;;;;;;;11.27;100.00;97928.24;273252;1270;22287;-80
2024/04/15 17:16:51;;;;;;;37.00;25.00;;;;;;;11.33;100.00;97914.82;272959;1270;22355;-82
2024/04/15 17:22:53;;;;;;;32.20;22.90;;;;;;;11.33;100.00;97910.42;273036;1270;22257;-81
2024/04/15 17:28:54;;;;;;;31.10;21.10;;;;;;;11.31;100.00;97901.29;272525;1270;22669;-82
2024/04/15 17:34:55;;;;;;;36.90;23.20;;;;;;;11.30;100.00;97890.34;273229;1270;22298;-83
2024/04/15 17:40:56;;;;;;;32.80;22.40;;;;;;;11.31;100.00;97885.86;273212;1270;23845;-82
2024/04/15 17:47:38;;;;;;;32.70;22.80;;;;;;;11.30;100.00;97868.89;272918;1269;22296;-82
2024/04/15 17:53:40;;;;;;;36.10;23.60;;;;;;;11.28;100.00;97858.42;273054;1270;22417;-82
2024/04/15 18:00:19;;;;;;;31.80;22.40;;;;;;;11.25;100.00;97870.02;273081;1270;22283;-81
2024/04/15 18:06:20;;;;;;;42.10;27.80;;;;;;;11.25;100.00;97853.52;272846;1270;22404;-82
2024/04/15 18:12:40;;;;;;;33.30;23.50;;;;;;;11.24;100.00;97826.77;273106;1270;22274;-82
2024/04/15 18:19:22;;;;;;;44.60;26.80;;;;;;;11.20;100.00;97837.67;272148;1270;23151;-82
2024/04/15 18:25:24;;;;;;;36.20;25.00;;;;;;;11.16;100.00;97830.43;272901;1270;22442;-81
2024/04/15 18:31:46;;;;;;;37.80;25.20;;;;;;;11.09;100.00;97820.64;273418;1271;22340;-82
2024/04/15 18:38:07;;;;;;;50.50;29.60;;;;;;;11.09;100.00;97808.98;273256;1272;23544;-82
2024/04/15 18:44:29;;;;;;;40.00;26.90;;;;;;;11.08;100.00;97805.31;273567;1271;22271;-82
2024/04/15 18:50:31;;;;;;;48.70;31.40;;;;;;;11.09;100.00;97790.98;271889;1270;22629;-82
2024/04/15 18:56:32;;;;;;;47.40;30.50;;;;;;;11.09;100.00;97778.55;271027;1270;22278;-82
2024/04/15 19:03:01;;;;;;;42.20;27.90;;;;;;;11.05;100.00;97771.63;273203;1271;22299;-82
2024/04/15 19:09:24;;;;;;;47.80;32.00;;;;;;;11.00;100.00;97768.86;272762;1270;22538;-82
2024/04/15 19:15:25;;;;;;;43.10;28.20;;;;;;;10.98;100.00;97756.20;271991;1265;22264;-82
2024/04/15 19:21:26;;;;;;;38.50;25.20;;;;;;;10.97;100.00;97740.88;272512;1270;22648;-82
2024/04/15 19:27:28;;;;;;;34.20;23.60;;;;;;;10.92;100.00;97740.23;272480;1262;22201;-82
2024/04/15 19:34:10;;;;;;;31.50;22.90;;;;;;;10.92;100.00;97746.35;273079;1270;23479;-82
2024/04/15 19:40:35;;;;;;;35.50;22.60;;;;;;;10.89;100.00;97745.81;273361;1272;22351;-82
2024/04/15 19:47:10;;;;;;;37.90;25.60;;;;;;;10.87;100.00;97741.21;272994;1271;22340;-82
2024/04/15 19:53:12;;;;;;;39.50;27.40;;;;;;;10.85;100.00;97730.84;272932;1272;24266;-82
2024/04/15 19:59:15;;;;;;;43.20;29.10;;;;;;;10.77;100.00;97731.77;270854;1270;22324;-83
2024/04/15 20:05:37;;;;;;;44.90;30.70;;;;;;;10.72;100.00;97730.19;272633;1270;22894;-82
2024/04/15 20:12:19;;;;;;;49.10;33.80;;;;;;;10.68;100.00;97702.46;273437;1272;23197;-82
2024/04/15 20:19:45;;;;;;;41.20;28.20;;;;;;;10.63;100.00;97703.52;273215;1272;23193;-82
2024/04/15 20:25:46;;;;;;;51.70;32.70;;;;;;;10.59;100.00;97685.28;271999;1270;23714;-82
2024/04/15 20:31:52;;;;;;;50.50;31.10;;;;;;;10.58;100.00;97669.41;273088;1271;22521;-82
2024/04/15 20:38:38;;;;;;;55.20;35.50;;;;;;;10.54;100.00;97656.09;271577;1270;22319;-82
2024/04/15 20:45:20;;;;;;;53.30;33.90;;;;;;;10.53;100.00;97639.84;270198;1270;22424;-82
2024/04/15 20:51:45;;;;;;;42.60;27.80;;;;;;;10.53;100.00;97644.52;273292;1272;22233;-82
2024/04/15 20:57:46;;;;;;;41.80;27.90;;;;;;;10.55;100.00;97641.06;270121;1271;25227;-81
2024/04/15 21:03:47;;;;;;;40.40;27.80;;;;;;;10.49;100.00;97648.46;270444;1270;24162;-82
2024/04/15 21:09:47;;;;;;;48.30;28.70;;;;;;;10.49;100.00;97625.65;273486;1270;22282;-83
2024/04/15 21:15:49;;;;;;;42.90;25.50;;;;;;;10.42;100.00;97635.02;273178;1271;23419;-84
2024/04/15 21:21:50;;;;;;;42.90;27.50;;;;;;;10.38;100.00;97666.54;272931;1271;22953;-82
2024/04/15 21:27:55;;;;;;;57.90;31.30;;;;;;;10.41;100.00;97667.00;273107;1271;23670;-82
2024/04/15 21:33:59;;;;;;;59.90;32.10;;;;;;;10.43;100.00;97650.09;272597;1270;22344;-82
2024/04/15 21:40:42;;;;;;;54.30;30.40;;;;;;;10.43;100.00;97627.59;272374;1272;22296;-82
2024/04/15 21:46:43;;;;;;;50.90;27.70;;;;;;;10.41;100.00;97618.00;272741;1270;23503;-82
2024/04/15 21:52:44;;;;;;;65.50;31.40;;;;;;;10.43;100.00;97591.80;271286;1271;23699;-82
2024/04/15 21:58:45;;;;;;;69.70;34.20;;;;;;;10.41;100.00;97562.11;273058;1271;22509;-83
2024/04/15 22:04:46;;;;;;;67.30;33.80;;;;;;;10.35;100.00;97546.07;271540;1271;22467;-82
2024/04/15 22:10:47;;;;;;;60.30;32.40;;;;;;;10.29;100.00;97537.23;272764;1271;22288;-82
2024/04/15 22:16:48;;;;;;;65.80;33.50;;;;;;;10.20;100.00;97484.90;273060;1268;22414;-82
2024/04/15 22:22:49;;;;;;;60.90;30.40;;;;;;;10.18;100.00;97472.36;273010;1271;22440;-82
2024/04/15 22:29:06;;;;;;;60.10;29.10;;;;;;;10.14;100.00;97495.98;272217;1272;22275;-82
2024/04/15 22:35:07;;;;;;;60.60;30.80;;;;;;;10.06;100.00;97507.85;271896;1272;22267;-82
2024/04/15 22:41:09;;;;;;;62.00;30.40;;;;;;;10.00;100.00;97494.87;273184;1271;22360;-84
2024/04/15 22:47:10;;;;;;;66.50;30.60;;;;;;;9.95;100.00;97490.94;272206;1271;22577;-81
2024/04/15 22:53:12;;;;;;;58.90;27.50;;;;;;;9.90;100.00;97494.19;269386;1270;22832;-83
2024/04/15 22:59:15;;;;;;;243.50;27.20;;;;;;;9.90;100.00;97482.32;269457;1271;22509;-82
2024/04/15 23:05:15;;;;;;;194.30;26.80;;;;;;;9.87;100.00;97468.92;269394;1271;22529;-83
2024/04/15 23:11:17;;;;;;;166.50;25.50;;;;;;;9.80;100.00;97470.08;269396;1270;24359;-82
2024/04/15 23:17:25;;;;;;;66.50;24.00;;;;;;;9.74;100.00;97461.87;271649;1270;22370;-82
2024/04/15 23:23:26;;;;;;;102.50;23.80;;;;;;;9.75;100.00;97464.12;270920;1270;22283;-82
2024/04/15 23:30:11;;;;;;;44.60;23.80;;;;;;;9.74;100.00;97466.00;270671;1271;24101;-81
2024/04/15 23:36:13;;;;;;;43.10;22.50;;;;;;;9.67;100.00;97473.17;270927;1270;22600;-81
2024/04/15 23:42:14;;;;;;;81.20;24.50;;;;;;;9.66;100.00;97470.77;269774;1270;23830;-82
2024/04/15 23:49:05;;;;;;;66.00;25.30;;;;;;;9.61;100.00;97471.36;273367;1275;22360;-81
2024/04/15 23:56:09;;;;;;;43.50;25.10;;;;;;;9.56;100.00;97438.92;273211;1272;22433;-81
